Time;durP1;ratioP1;P1;durP2;ratioP2;P2;SDS_P1;SDS_P2;PMS_P1;PMS_P2;Temp;Humidity;BMP_temperature;BMP_pressure;BME280_temperature;BME280_humidity;BME280_pressure;Samples;Min_cycle;Max_cycle;Signal;HPM_P1;HPM_P2
2023/10/08 00:02:30;;;;;;;0.10;0.10;;;;;;;14.56;100.00;97258.34;5021576;28;20037;-87
2023/10/08 00:05:16;;;;;;;0.10;0.10;;;;;;;14.59;100.00;97260.50;5023766;28;20076;-86
2023/10/08 00:08:04;;;;;;;0.10;0.10;;;;;;;14.62;100.00;97268.06;5022326;28;20083;-87
2023/10/08 00:10:51;;;;;;;0.10;0.10;;;;;;;14.64;100.00;97262.44;5025757;28;20101;-85
2023/10/08 00:13:40;;;;;;;0.10;0.10;;;;;;;14.61;100.00;97255.69;5022084;28;20292;-88
2023/10/08 00:16:28;;;;;;;0.10;0.10;;;;;;;14.55;100.00;97255.88;5023287;28;20076;-86
2023/10/08 00:19:15;;;;;;;0.00;0.00;;;;;;;14.39;100.00;97247.59;5022369;28;20118;-83
2023/10/08 00:22:05;;;;;;;0.10;0.10;;;;;;;14.35;100.00;97251.06;5024666;28;20091;-84
2023/10/08 00:24:57;;;;;;;0.00;0.00;;;;;;;14.35;100.00;97254.56;5023592;28;20067;-85
2023/10/08 00:27:43;;;;;;;0.10;0.10;;;;;;;14.25;100.00;97264.44;5043386;28;20188;-84
2023/10/08 00:30:31;;;;;;;0.10;0.10;;;;;;;14.23;100.00;97270.84;5037063;28;20175;-83
2023/10/08 00:33:17;;;;;;;0.15;0.15;;;;;;;14.28;100.00;97274.69;5042816;28;20127;-84
2023/10/08 00:36:18;;;;;;;0.00;0.00;;;;;;;14.20;100.00;97266.00;5022639;28;21409;-86
2023/10/08 00:39:13;;;;;;;;;;;;;;;14.22;100.00;97257.66;5021058;28;20057;-85
2023/10/08 00:41:59;;;;;;;0.10;0.10;;;;;;;14.21;100.00;97246.06;5023141;28;19982;-86
2023/10/08 00:44:51;;;;;;;0.10;0.10;;;;;;;14.26;100.00;97253.41;5021821;28;20124;-86
2023/10/08 00:47:42;;;;;;;0.10;0.10;;;;;;;14.30;100.00;97254.50;5026584;28;20486;-85
2023/10/08 00:50:42;;;;;;;0.00;0.00;;;;;;;14.33;100.00;97263.97;5022168;28;20090;-85
2023/10/08 00:53:28;;;;;;;0.10;0.10;;;;;;;14.23;100.00;97261.97;5024083;28;20045;-87
2023/10/08 00:56:18;;;;;;;0.10;0.10;;;;;;;14.17;100.00;97253.03;5019959;28;20079;-85
2023/10/08 00:59:06;;;;;;;0.10;0.10;;;;;;;14.06;100.00;97253.16;5023480;28;20049;-84
2023/10/08 01:01:58;;;;;;;0.00;0.00;;;;;;;13.92;100.00;97263.47;5020654;28;21047;-87
2023/10/08 01:04:44;;;;;;;0.10;0.10;;;;;;;13.74;100.00;97255.72;5024270;28;20219;-86
2023/10/08 01:07:35;;;;;;;0.10;0.10;;;;;;;13.68;100.00;97251.34;5034697;28;20045;-86
2023/10/08 01:10:24;;;;;;;0.10;0.10;;;;;;;13.50;100.00;97239.81;5022067;28;20050;-88
2023/10/08 01:13:15;;;;;;;0.10;0.10;;;;;;;13.44;100.00;97258.81;5031632;28;20041;-86
2023/10/08 01:16:01;;;;;;;0.10;0.10;;;;;;;13.31;100.00;97270.72;5019381;28;20049;-86
2023/10/08 01:18:50;;;;;;;0.10;0.10;;;;;;;13.20;100.00;97275.13;5022144;28;20142;-87
2023/10/08 01:21:40;;;;;;;0.10;0.10;;;;;;;13.01;100.00;97279.91;5022652;28;20072;-86
2023/10/08 01:24:27;;;;;;;0.03;0.03;;;;;;;13.04;100.00;97273.22;5023491;28;20410;-85
2023/10/08 01:27:19;;;;;;;0.10;0.10;;;;;;;13.05;100.00;97278.34;5021421;28;20044;-85
2023/10/08 01:30:17;;;;;;;0.10;0.10;;;;;;;13.08;100.00;97269.81;5033879;28;20730;-86
2023/10/08 01:33:03;;;;;;;0.10;0.10;;;;;;;13.19;100.00;97264.59;5024001;28;20068;-84
2023/10/08 01:35:49;;;;;;;0.10;0.10;;;;;;;13.29;100.00;97262.09;5023401;28;20093;-85
2023/10/08 01:38:35;;;;;;;0.25;0.10;;;;;;;13.21;100.00;97249.06;5024596;28;20561;-84
2023/10/08 01:41:29;;;;;;;0.10;0.10;;;;;;;13.24;100.00;97257.47;5028891;28;20710;-86
2023/10/08 01:44:16;;;;;;;0.10;0.10;;;;;;;13.26;100.00;97243.78;5027213;28;20492;-86
2023/10/08 01:47:04;;;;;;;0.10;0.10;;;;;;;13.24;100.00;97251.28;5038222;28;20945;-87
2023/10/08 01:49:50;;;;;;;0.00;0.00;;;;;;;13.17;100.00;97261.34;5027479;28;20150;-84
2023/10/08 01:52:36;;;;;;;0.10;0.10;;;;;;;13.12;100.00;97254.00;5026856;28;20465;-88
2023/10/08 01:55:24;;;;;;;0.00;0.00;;;;;;;13.04;100.00;97249.03;5027040;28;20045;-84
2023/10/08 01:58:11;;;;;;;0.10;0.10;;;;;;;13.00;100.00;97251.41;5038795;28;20036;-88
2023/10/08 02:00:59;;;;;;;0.10;0.10;;;;;;;12.97;100.00;97249.19;5041040;28;20053;-88
2023/10/08 02:03:45;;;;;;;0.10;0.10;;;;;;;12.98;100.00;97245.44;5032531;28;20044;-85
2023/10/08 02:06:31;;;;;;;0.10;0.10;;;;;;;13.00;100.00;97240.66;5028796;28;20049;-85
2023/10/08 02:09:17;;;;;;;0.10;0.10;;;;;;;12.93;100.00;97231.16;5039623;28;21013;-84
2023/10/08 02:12:03;;;;;;;0.10;0.10;;;;;;;12.86;100.00;97250.09;5021655;28;20068;-84
2023/10/08 02:14:49;;;;;;;0.03;0.03;;;;;;;12.91;100.00;97265.47;5026003;28;20053;-85
2023/10/08 02:17:35;;;;;;;0.10;0.10;;;;;;;12.94;100.00;97249.69;5023239;28;20407;-83
2023/10/08 02:20:21;;;;;;;0.08;0.08;;;;;;;13.00;100.00;97256.78;5025627;28;20747;-85
2023/10/08 02:23:07;;;;;;;0.00;0.00;;;;;;;13.06;100.00;97250.41;5025686;28;20051;-85
2023/10/08 02:25:54;;;;;;;0.00;0.00;;;;;;;13.11;100.00;97242.44;5019556;28;20057;-85
2023/10/08 02:28:40;;;;;;;0.10;0.10;;;;;;;13.11;100.00;97242.44;5022033;28;20045;-85
2023/10/08 02:31:27;;;;;;;0.10;0.10;;;;;;;13.06;100.00;97254.97;5025368;28;20543;-84
2023/10/08 02:34:13;;;;;;;0.00;0.00;;;;;;;13.06;100.00;97260.34;5022399;28;20680;-86
2023/10/08 02:36:59;;;;;;;0.10;0.10;;;;;;;13.08;100.00;97269.00;5023485;28;20775;-87
2023/10/08 02:39:45;;;;;;;0.08;0.08;;;;;;;13.07;100.00;97268.19;5023565;28;20263;-85
2023/10/08 02:42:31;;;;;;;0.10;0.10;;;;;;;13.04;100.00;97267.84;5025444;28;20791;-84
2023/10/08 02:45:18;;;;;;;0.10;0.10;;;;;;;13.08;100.00;97266.31;5028206;28;20410;-87
2023/10/08 02:48:11;;;;;;;0.10;0.10;;;;;;;13.03;100.00;97269.72;5035250;28;20247;-87
2023/10/08 02:51:06;;;;;;;0.10;0.10;;;;;;;13.07;100.00;97278.09;5024778;28;20143;-88
2023/10/08 02:53:52;;;;;;;0.10;0.10;;;;;;;13.06;100.00;97271.91;5034976;28;20041;-86
2023/10/08 02:56:38;;;;;;;0.10;0.10;;;;;;;13.13;100.00;97282.50;5024003;28;20092;-85
2023/10/08 02:59:40;;;;;;;0.10;0.10;;;;;;;13.16;100.00;97276.66;5023258;28;20152;-86
2023/10/08 03:02:27;;;;;;;0.00;0.00;;;;;;;13.16;100.00;97282.03;5022833;28;20104;-86
2023/10/08 03:05:17;;;;;;;0.10;0.10;;;;;;;13.22;100.00;97285.63;5023401;28;20049;-85
2023/10/08 03:08:10;;;;;;;0.13;0.13;;;;;;;13.16;100.00;97286.59;5028493;28;20056;-87
2023/10/08 03:11:02;;;;;;;0.10;0.10;;;;;;;13.31;100.00;97292.25;5034941;28;20052;-89
2023/10/08 03:13:51;;;;;;;0.10;0.10;;;;;;;13.38;100.00;97291.00;5036519;28;20414;-86
2023/10/08 03:16:39;;;;;;;0.10;0.10;;;;;;;13.52;100.00;97290.66;5023947;28;20036;-88
2023/10/08 03:19:27;;;;;;;0.10;0.10;;;;;;;13.73;100.00;97289.06;5036369;28;20040;-84
2023/10/08 03:22:13;;;;;;;0.10;0.10;;;;;;;13.83;100.00;97281.94;5024390;28;20056;-87
2023/10/08 03:25:14;;;;;;;0.10;0.10;;;;;;;13.90;100.00;97281.75;5022318;28;20045;-88
2023/10/08 03:28:00;;;;;;;0.10;0.10;;;;;;;13.90;100.00;97279.06;5019281;28;20041;-88
2023/10/08 03:30:56;;;;;;;0.10;0.10;;;;;;;13.88;100.00;97267.75;5019891;28;20092;-86
2023/10/08 03:33:43;;;;;;;0.10;0.10;;;;;;;13.87;100.00;97279.59;5021439;28;20055;-84
2023/10/08 03:36:35;;;;;;;0.10;0.10;;;;;;;13.88;100.00;97281.19;5042822;28;20053;-84
2023/10/08 03:39:21;;;;;;;0.10;0.10;;;;;;;13.89;100.00;97269.38;5037555;28;20064;-85
2023/10/08 03:42:09;;;;;;;0.10;0.10;;;;;;;13.92;100.00;97260.78;5025061;28;20084;-87
2023/10/08 03:44:56;;;;;;;0.00;0.00;;;;;;;13.94;100.00;97256.81;5044957;28;20144;-85
2023/10/08 03:47:46;;;;;;;0.10;0.10;;;;;;;13.92;100.00;97253.53;5022827;28;20180;-87
2023/10/08 03:50:43;;;;;;;0.10;0.10;;;;;;;13.83;100.00;97256.91;5024324;28;20034;-84
2023/10/08 03:53:33;;;;;;;0.00;0.00;;;;;;;13.74;100.00;97248.47;5022863;28;20584;-86
2023/10/08 03:56:19;;;;;;;0.10;0.10;;;;;;;13.64;100.00;97256.41;5028170;28;20084;-86
2023/10/08 03:59:12;;;;;;;0.10;0.10;;;;;;;13.62;100.00;97262.03;5027371;28;20044;-84
2023/10/08 04:02:14;;;;;;;0.00;0.00;;;;;;;13.63;100.00;97265.53;5031708;28;20044;-86
2023/10/08 04:05:15;;;;;;;0.10;0.10;;;;;;;13.72;100.00;97277.50;5033400;28;20106;-87
2023/10/08 04:11:08;;;;;;;0.08;0.08;;;;;;;13.58;100.00;97281.59;5026483;28;20045;-84
2023/10/08 04:13:54;;;;;;;0.10;0.10;;;;;;;13.50;100.00;97293.59;5028429;28;20136;-87
2023/10/08 04:16:40;;;;;;;0.10;0.10;;;;;;;13.42;100.00;97298.56;5024577;28;20037;-85
2023/10/08 04:19:28;;;;;;;0.10;0.10;;;;;;;13.28;100.00;97293.53;5028415;28;20106;-85
2023/10/08 04:22:17;;;;;;;0.10;0.10;;;;;;;13.20;100.00;97285.88;5028486;28;20044;-87
2023/10/08 04:25:06;;;;;;;0.10;0.10;;;;;;;13.18;100.00;97281.78;5025316;28;20261;-86
2023/10/08 04:27:52;;;;;;;0.10;0.10;;;;;;;13.12;100.00;97288.94;5030767;28;20828;-85
2023/10/08 04:30:41;;;;;;;0.10;0.10;;;;;;;13.13;100.00;97287.06;5038663;28;20033;-84
2023/10/08 04:33:33;;;;;;;0.10;0.10;;;;;;;13.17;100.00;97283.66;5027204;28;20049;-85
2023/10/08 04:36:19;;;;;;;0.10;0.10;;;;;;;13.10;100.00;97267.69;5028286;28;20727;-87
2023/10/08 04:39:13;;;;;;;0.10;0.10;;;;;;;13.02;100.00;97286.91;5022738;28;20048;-84
2023/10/08 04:42:05;;;;;;;0.10;0.10;;;;;;;13.08;100.00;97293.19;5024068;28;20075;-87
2023/10/08 04:44:52;;;;;;;0.10;0.10;;;;;;;13.21;100.00;97305.50;5036427;28;20033;-87
2023/10/08 04:47:41;;;;;;;0.10;0.10;;;;;;;13.37;100.00;97293.91;5025984;28;20107;-87
2023/10/08 04:50:30;;;;;;;0.10;0.10;;;;;;;13.42;100.00;97283.25;5027261;28;20049;-86
2023/10/08 04:53:16;;;;;;;0.10;0.10;;;;;;;13.46;100.00;97284.38;5025101;28;20049;-86
2023/10/08 04:56:13;;;;;;;0.10;0.10;;;;;;;13.49;100.00;97267.75;5020357;28;20077;-85
2023/10/08 04:58:58;;;;;;;0.10;0.10;;;;;;;13.47;100.00;97243.00;5022611;28;20048;-85
2023/10/08 05:01:47;;;;;;;0.10;0.10;;;;;;;13.50;100.00;97245.19;5021869;28;20041;-87
2023/10/08 05:04:45;;;;;;;0.10;0.10;;;;;;;13.57;100.00;97267.34;5034776;28;20044;-85
2023/10/08 05:08:00;;;;;;;0.10;0.10;;;;;;;13.62;100.00;97251.28;5024947;28;20152;-86
2023/10/08 05:11:00;;;;;;;0.10;0.10;;;;;;;13.70;100.00;97265.38;5020626;28;20038;-86
2023/10/08 05:14:02;;;;;;;0.10;0.10;;;;;;;13.69;100.00;97267.22;5023657;28;20041;-86
2023/10/08 05:17:03;;;;;;;;;;;;;;;13.63;100.00;97281.69;5022701;28;20136;-87
2023/10/08 05:23:05;;;;;;;0.10;0.10;;;;;;;13.49;100.00;97266.97;5023678;28;20113;-87
2023/10/08 05:29:29;;;;;;;0.17;0.17;;;;;;;13.38;100.00;97299.06;5036616;28;20118;-85
2023/10/08 05:38:23;;;;;;;0.10;0.10;;;;;;;13.31;100.00;97316.44;5021941;28;20045;-87
2023/10/08 05:41:28;;;;;;;0.10;0.10;;;;;;;13.35;100.00;97328.31;5019190;28;20045;-89
2023/10/08 05:44:14;;;;;;;0.10;0.10;;;;;;;13.43;100.00;97319.81;5024190;28;21025;-86
2023/10/08 05:53:29;;;;;;;0.10;0.10;;;;;;;13.43;100.00;97313.63;5021036;28;20055;-87
2023/10/08 05:56:28;;;;;;;0.10;0.10;;;;;;;13.51;100.00;97319.41;5022841;28;20106;-87
2023/10/08 05:59:17;;;;;;;0.10;0.10;;;;;;;13.54;100.00;97318.09;5025205;28;20076;-85
2023/10/08 06:02:06;;;;;;;0.10;0.10;;;;;;;13.64;100.00;97320.97;5021768;28;20483;-86
2023/10/08 06:08:12;;;;;;;0.10;0.10;;;;;;;13.61;100.00;97300.72;4985644;28;20041;-86
2023/10/08 06:11:00;;;;;;;0.10;0.10;;;;;;;13.48;100.00;97314.53;5022601;28;20814;-86
2023/10/08 06:13:55;;;;;;;0.10;0.10;;;;;;;13.35;100.00;97315.69;5022584;28;20754;-88
2023/10/08 06:16:43;;;;;;;0.10;0.10;;;;;;;13.35;100.00;97313.00;5021395;28;22726;-86
2023/10/08 06:19:30;;;;;;;0.10;0.10;;;;;;;13.42;100.00;97338.91;5024626;28;20872;-86
2023/10/08 06:22:16;;;;;;;0.10;0.10;;;;;;;13.48;100.00;97351.38;5023954;28;20040;-85
2023/10/08 06:25:16;;;;;;;0.10;0.10;;;;;;;13.50;100.00;97351.94;5030480;28;20049;-85
2023/10/08 06:28:03;;;;;;;0.10;0.10;;;;;;;13.52;100.00;97353.31;5028270;28;20051;-86
2023/10/08 06:30:53;;;;;;;0.10;0.10;;;;;;;13.51;100.00;97359.75;5023119;28;20037;-85
2023/10/08 06:33:41;;;;;;;0.10;0.10;;;;;;;13.60;100.00;97357.44;5025688;28;20032;-84
2023/10/08 06:36:28;;;;;;;0.10;0.10;;;;;;;13.65;100.00;97357.53;5035154;28;20045;-84
2023/10/08 06:39:18;;;;;;;0.10;0.10;;;;;;;13.70;100.00;97360.31;5023591;28;20053;-84
2023/10/08 06:42:04;;;;;;;0.10;0.10;;;;;;;13.67;100.00;97368.84;5024164;28;20045;-85
2023/10/08 06:44:58;;;;;;;0.10;0.10;;;;;;;13.69;100.00;97365.91;5038909;28;20045;-83
2023/10/08 06:47:45;;;;;;;0.10;0.10;;;;;;;13.76;100.00;97374.63;5025274;28;20823;-84
2023/10/08 06:50:34;;;;;;;0.10;0.10;;;;;;;13.80;100.00;97367.72;5026176;28;20033;-85
2023/10/08 06:53:21;;;;;;;0.10;0.10;;;;;;;13.81;100.00;97362.09;5027036;28;20072;-84
2023/10/08 06:56:09;;;;;;;0.10;0.10;;;;;;;13.80;100.00;97375.78;5024038;28;20550;-85
2023/10/08 06:58:55;;;;;;;0.10;0.10;;;;;;;13.76;100.00;97361.19;5025982;28;20053;-84
2023/10/08 07:01:45;;;;;;;0.10;0.10;;;;;;;13.72;100.00;97366.25;5024916;28;20068;-84
2023/10/08 07:04:31;;;;;;;0.10;0.10;;;;;;;13.74;100.00;97366.00;5020797;28;20041;-84
2023/10/08 07:07:18;;;;;;;0.10;0.10;;;;;;;13.79;100.00;97352.63;5023920;28;20052;-84
2023/10/08 07:10:05;;;;;;;0.05;0.05;;;;;;;13.85;100.00;97357.84;5023573;28;20042;-84
2023/10/08 07:12:53;;;;;;;0.10;0.10;;;;;;;13.90;100.00;97346.31;5022892;28;20330;-84
2023/10/08 07:15:41;;;;;;;0.10;0.10;;;;;;;13.91;100.00;97356.03;5024460;28;20068;-84
2023/10/08 07:18:27;;;;;;;0.15;0.15;;;;;;;14.00;100.00;97351.03;5024275;28;20045;-84
2023/10/08 07:21:12;;;;;;;0.10;0.10;;;;;;;14.13;100.00;97359.56;5020573;28;20045;-84
2023/10/08 07:24:04;;;;;;;0.10;0.10;;;;;;;14.21;100.00;97352.94;5021266;28;20055;-84
2023/10/08 07:26:55;;;;;;;0.00;0.00;;;;;;;14.28;100.00;97380.47;5022178;28;20034;-84
2023/10/08 07:29:41;;;;;;;0.10;0.10;;;;;;;14.40;100.00;97372.31;5022759;28;20163;-84
2023/10/08 07:32:27;;;;;;;0.10;0.10;;;;;;;14.43;100.00;97383.38;5022708;28;20073;-85
2023/10/08 07:35:29;;;;;;;0.10;0.10;;;;;;;14.42;100.00;97373.66;5024527;28;20060;-84
2023/10/08 07:38:15;;;;;;;0.10;0.10;;;;;;;14.42;100.00;97379.06;5020332;28;20623;-84
2023/10/08 07:41:01;;;;;;;0.10;0.10;;;;;;;14.50;100.00;97385.91;5022318;28;20133;-84
2023/10/08 07:43:55;;;;;;;0.10;0.10;;;;;;;14.65;100.00;97382.59;5022613;28;20041;-84
2023/10/08 07:46:41;;;;;;;0.10;0.10;;;;;;;14.77;100.00;97388.63;5021352;28;20040;-84
2023/10/08 07:49:29;;;;;;;0.10;0.10;;;;;;;14.94;100.00;97389.38;5021212;28;20069;-85
2023/10/08 07:52:15;;;;;;;0.10;0.10;;;;;;;15.07;100.00;97377.38;5022734;28;20096;-85
2023/10/08 07:55:05;;;;;;;0.10;0.10;;;;;;;15.03;100.00;97369.00;5022743;28;21119;-84
2023/10/08 07:57:52;;;;;;;0.10;0.10;;;;;;;14.97;100.00;97363.81;5024532;28;20053;-84
2023/10/08 08:00:40;;;;;;;0.13;0.13;;;;;;;14.92;100.00;97361.84;5021499;28;20102;-84
2023/10/08 08:03:26;;;;;;;0.10;0.10;;;;;;;14.90;100.00;97372.09;5022009;28;20847;-84
2023/10/08 08:06:13;;;;;;;0.10;0.10;;;;;;;14.81;100.00;97373.59;5023153;28;20048;-84
2023/10/08 08:08:59;;;;;;;0.10;0.10;;;;;;;14.77;100.00;97377.88;5023805;28;20520;-84
2023/10/08 08:11:46;;;;;;;0.10;0.10;;;;;;;14.86;100.00;97378.22;5021515;28;20212;-84
2023/10/08 08:14:32;;;;;;;0.10;0.10;;;;;;;14.92;100.00;97382.59;5022336;28;20128;-84
2023/10/08 08:17:18;;;;;;;0.10;0.10;;;;;;;15.03;100.00;97373.56;5019795;28;20052;-84
2023/10/08 08:20:17;;;;;;;0.13;0.13;;;;;;;15.17;100.00;97409.00;5021700;28;20049;-84
2023/10/08 08:23:07;;;;;;;0.10;0.10;;;;;;;15.35;100.00;97411.34;5022158;28;20805;-84
2023/10/08 08:26:06;;;;;;;0.10;0.10;;;;;;;15.40;100.00;97380.91;5025205;28;20147;-85
2023/10/08 08:28:57;;;;;;;0.10;0.10;;;;;;;15.24;100.00;97398.81;5022059;28;20041;-85
2023/10/08 08:31:46;;;;;;;0.10;0.10;;;;;;;15.38;100.00;97416.22;5022597;28;20419;-85
2023/10/08 08:34:32;;;;;;;0.10;0.10;;;;;;;16.14;100.00;97402.53;4993242;28;20782;-84
2023/10/08 08:37:18;;;;;;;0.10;0.10;;;;;;;16.07;100.00;97412.75;5021898;28;20539;-85
2023/10/08 08:40:24;;;;;;;0.10;0.10;;;;;;;15.53;100.00;97408.25;5024546;28;20049;-85
2023/10/08 08:43:11;;;;;;;0.10;0.10;;;;;;;15.50;100.00;97413.38;5022438;28;20160;-85
2023/10/08 08:45:57;;;;;;;0.10;0.10;;;;;;;16.04;100.00;97418.69;5019967;28;20800;-86
2023/10/08 08:48:44;;;;;;;0.13;0.13;;;;;;;16.56;100.00;97412.47;5023101;28;21211;-86
2023/10/08 08:51:31;;;;;;;0.10;0.10;;;;;;;17.16;100.00;97405.66;5022450;28;20140;-85
2023/10/08 08:54:17;;;;;;;0.10;0.10;;;;;;;17.07;100.00;97405.38;5020073;28;20056;-84
2023/10/08 08:57:06;;;;;;;0.10;0.10;;;;;;;16.98;100.00;97415.09;5021652;28;20041;-84
2023/10/08 08:59:58;;;;;;;0.10;0.10;;;;;;;16.58;100.00;97418.44;5023362;28;20067;-85
2023/10/08 09:02:49;;;;;;;0.10;0.10;;;;;;;16.34;100.00;97412.63;5021323;28;20132;-83
2023/10/08 09:05:35;;;;;;;0.15;0.15;;;;;;;16.29;100.00;97402.63;5024025;28;20061;-84
2023/10/08 09:08:24;;;;;;;0.10;0.10;;;;;;;16.27;100.00;97406.66;5021374;28;20463;-84
2023/10/08 09:11:14;;;;;;;0.10;0.10;;;;;;;16.27;100.00;97412.06;5023763;28;20597;-84
2023/10/08 09:14:02;;;;;;;0.20;0.20;;;;;;;16.64;100.00;97422.75;5033905;28;20099;-84
2023/10/08 09:16:54;;;;;;;0.10;0.10;;;;;;;16.92;100.00;97413.44;5021810;28;20040;-84
2023/10/08 09:19:39;;;;;;;0.10;0.10;;;;;;;17.19;100.00;97405.94;5019256;28;20072;-84
2023/10/08 09:22:29;;;;;;;0.10;0.10;;;;;;;17.21;100.00;97416.50;5019753;28;20890;-84
2023/10/08 09:25:24;;;;;;;0.10;0.10;;;;;;;17.14;100.00;97415.94;5020503;28;20049;-85
2023/10/08 09:28:12;;;;;;;0.20;0.20;;;;;;;17.37;100.00;97425.47;5021873;28;20148;-85
2023/10/08 09:30:59;;;;;;;0.10;0.10;;;;;;;17.47;100.00;97437.09;5020795;28;20048;-85
2023/10/08 09:33:55;;;;;;;0.10;0.10;;;;;;;17.46;100.00;97435.47;5007017;28;21008;-85
2023/10/08 09:36:42;;;;;;;0.10;0.10;;;;;;;17.23;100.00;97425.97;5019920;28;20351;-84
2023/10/08 09:39:33;;;;;;;0.10;0.10;;;;;;;17.20;100.00;97429.22;5022799;28;20037;-84
2023/10/08 09:42:22;;;;;;;;;;;;;;;17.61;100.00;97421.16;5027357;28;20045;-84
2023/10/08 09:45:08;;;;;;;0.10;0.10;;;;;;;18.16;100.00;97411.41;5027502;28;19917;-84
2023/10/08 09:47:55;;;;;;;0.10;0.10;;;;;;;18.20;100.00;97431.41;5027343;28;20053;-84
2023/10/08 09:50:42;;;;;;;0.10;0.10;;;;;;;18.25;100.00;97436.03;5022723;28;20053;-85
2023/10/08 09:53:41;;;;;;;0.10;0.10;;;;;;;18.12;100.00;97420.31;5021781;28;20048;-84
2023/10/08 09:56:31;;;;;;;0.10;0.10;;;;;;;18.30;100.00;97427.91;5020527;28;20049;-85
2023/10/08 09:59:19;;;;;;;0.10;0.10;;;;;;;18.42;100.00;97420.25;5024063;28;20056;-82
2023/10/08 10:02:09;;;;;;;0.10;0.10;;;;;;;18.36;100.00;97429.47;5021664;28;20490;-84
2023/10/08 10:04:55;;;;;;;0.10;0.10;;;;;;;18.86;100.00;97433.97;5024631;28;20220;-84
2023/10/08 10:07:43;;;;;;;0.10;0.10;;;;;;;20.34;100.00;97445.69;5027929;28;20375;-84
2023/10/08 10:10:31;;;;;;;0.17;0.17;;;;;;;22.97;100.00;97442.88;5027989;28;20099;-85
2023/10/08 10:13:18;;;;;;;0.10;0.10;;;;;;;25.58;89.17;97450.69;5022907;28;20052;-85
2023/10/08 10:16:07;;;;;;;0.10;0.10;;;;;;;26.79;77.70;97445.84;5024043;28;21090;-85
2023/10/08 10:18:57;;;;;;;0.20;0.20;;;;;;;27.32;71.20;97440.91;5025558;28;20060;-84
2023/10/08 10:21:43;;;;;;;0.17;0.17;;;;;;;27.86;68.77;97447.31;5016617;28;20097;-84
2023/10/08 10:24:41;;;;;;;0.10;0.10;;;;;;;28.39;60.52;97448.44;5023701;28;20063;-85
2023/10/08 10:27:27;;;;;;;0.10;0.10;;;;;;;28.53;60.70;97459.13;5024634;28;20045;-84
2023/10/08 10:30:18;;;;;;;0.10;0.10;;;;;;;27.24;75.86;97471.97;5022349;28;20045;-84
2023/10/08 10:33:05;;;;;;;0.10;0.10;;;;;;;24.66;89.18;97470.56;5020950;28;20045;-84
2023/10/08 10:35:52;;;;;;;0.10;0.10;;;;;;;22.65;100.00;97475.69;5025219;28;20051;-85
2023/10/08 10:38:38;;;;;;;0.20;0.20;;;;;;;24.01;97.81;97478.53;5008743;28;20043;-83
2023/10/08 10:41:27;;;;;;;0.20;0.20;;;;;;;25.87;88.35;97485.72;5024226;28;20115;-84
2023/10/08 10:44:15;;;;;;;0.10;0.10;;;;;;;26.68;82.50;97474.78;5022195;28;20055;-85
2023/10/08 10:52:52;;;;;;;0.10;0.10;;;;;;;31.21;50.25;97476.88;5023879;28;20045;-85
2023/10/08 10:55:37;;;;;;;0.10;0.10;;;;;;;31.85;42.93;97467.31;5024916;28;20119;-85
2023/10/08 10:58:24;;;;;;;0.10;0.10;;;;;;;32.05;44.10;97467.28;5021416;28;20072;-85
2023/10/08 11:01:25;;;;;;;0.10;0.10;;;;;;;33.20;41.86;97462.69;5023056;28;20045;-85
2023/10/08 11:04:15;;;;;;;0.10;0.10;;;;;;;33.46;40.49;97445.25;5023593;28;20033;-85
2023/10/08 11:07:01;;;;;;;0.10;0.10;;;;;;;34.18;38.68;97455.34;5021109;28;20049;-85
2023/10/08 11:09:52;;;;;;;0.10;0.10;;;;;;;35.13;36.00;97452.72;5021635;28;20037;-85
2023/10/08 11:12:46;;;;;;;0.00;0.00;;;;;;;34.34;35.87;97458.69;5022208;28;20041;-85
2023/10/08 11:15:40;;;;;;;0.00;0.00;;;;;;;31.22;44.85;97463.88;5022230;28;20755;-85
2023/10/08 11:18:28;;;;;;;0.10;0.10;;;;;;;32.23;42.09;97462.13;5023488;28;20053;-85
2023/10/08 11:21:15;;;;;;;0.10;0.10;;;;;;;33.89;36.77;97460.53;5023193;28;21013;-85
2023/10/08 11:24:08;;;;;;;0.10;0.10;;;;;;;34.22;35.70;97454.19;5024587;28;20875;-85
2023/10/08 11:27:06;;;;;;;0.10;0.10;;;;;;;33.63;35.50;97458.59;5021581;28;20283;-85
2023/10/08 11:29:57;;;;;;;0.10;0.10;;;;;;;34.78;35.33;97460.72;5022564;28;20052;-84
2023/10/08 11:32:48;;;;;;;0.00;0.00;;;;;;;34.01;34.17;97462.28;5016341;28;20899;-85
2023/10/08 11:35:34;;;;;;;0.03;0.03;;;;;;;35.16;33.77;97460.28;5020242;28;20051;-86
2023/10/08 11:38:22;;;;;;;0.10;0.10;;;;;;;34.50;34.28;97458.50;5022547;28;20710;-85
2023/10/08 11:41:21;;;;;;;0.10;0.10;;;;;;;35.18;31.70;97449.59;5034685;28;20045;-85
2023/10/08 11:44:13;;;;;;;0.10;0.10;;;;;;;34.92;35.66;97457.31;5022667;28;20121;-85
2023/10/08 11:47:10;;;;;;;0.10;0.10;;;;;;;35.93;31.52;97454.81;5022467;28;20045;-85
2023/10/08 11:50:19;;;;;;;0.10;0.10;;;;;;;36.41;31.99;97446.25;5021056;28;20041;-85
2023/10/08 11:53:05;;;;;;;0.00;0.00;;;;;;;34.62;34.06;97450.66;5021222;28;20045;-85
2023/10/08 11:55:56;;;;;;;0.00;0.00;;;;;;;32.20;41.72;97451.75;5022418;28;20073;-84
2023/10/08 11:58:44;;;;;;;0.00;0.00;;;;;;;29.54;55.80;97462.06;5034735;28;20048;-85
2023/10/08 12:01:32;;;;;;;0.00;0.00;;;;;;;28.01;69.38;97459.63;5022258;28;20041;-85
2023/10/08 12:04:18;;;;;;;0.00;0.00;;;;;;;27.71;72.16;97459.72;5022131;28;20136;-86
2023/10/08 12:07:07;;;;;;;0.00;0.00;;;;;;;27.47;75.83;97457.63;5019348;28;20052;-84
2023/10/08 12:09:54;;;;;;;0.00;0.00;;;;;;;26.89;80.83;97458.41;5021046;28;20115;-85
2023/10/08 12:12:40;;;;;;;0.03;0.03;;;;;;;26.94;80.20;97448.03;5023046;28;20157;-84
2023/10/08 12:15:38;;;;;;;0.00;0.00;;;;;;;25.36;90.41;97454.38;5017226;28;20048;-85
2023/10/08 12:18:26;;;;;;;0.00;0.00;;;;;;;25.90;87.76;97447.50;5019963;28;20047;-84
2023/10/08 12:21:15;;;;;;;0.00;0.00;;;;;;;25.80;87.21;97448.63;5021234;28;20037;-84
2023/10/08 12:24:05;;;;;;;0.00;0.00;;;;;;;25.56;89.31;97453.78;5019865;28;20046;-84
2023/10/08 12:26:51;;;;;;;0.10;0.10;;;;;;;26.41;85.22;97445.03;5017805;28;20115;-85
2023/10/08 12:29:38;;;;;;;0.00;0.00;;;;;;;26.87;83.02;97453.25;5020208;28;20120;-85
2023/10/08 12:32:26;;;;;;;0.13;0.13;;;;;;;28.70;73.69;97449.84;5020538;28;20100;-85
2023/10/08 12:35:15;;;;;;;0.13;0.10;;;;;;;29.90;60.22;97446.56;5016110;28;20056;-85
2023/10/08 12:38:00;;;;;;;0.10;0.10;;;;;;;31.49;55.79;97451.06;5022372;28;20052;-84
2023/10/08 12:41:28;;;;;;;0.10;0.10;;;;;;;30.28;55.80;97451.59;5022093;28;20049;-84
2023/10/08 12:43:55;;;;;;;0.10;0.10;;;;;;;29.89;62.80;97444.97;5021716;28;20046;-84
2023/10/08 12:46:43;;;;;;;0.00;0.00;;;;;;;29.32;67.45;97441.28;5022131;28;20040;-84
2023/10/08 12:49:33;;;;;;;0.00;0.00;;;;;;;29.25;68.59;97437.47;5020115;28;20053;-84
2023/10/08 12:52:20;;;;;;;0.10;0.10;;;;;;;30.34;60.00;97430.84;5020837;28;20631;-83
2023/10/08 12:55:06;;;;;;;0.00;0.00;;;;;;;31.54;52.86;97425.91;5033314;28;20041;-85
2023/10/08 12:57:55;;;;;;;0.10;0.10;;;;;;;30.20;54.97;97422.22;5020559;28;20123;-83
2023/10/08 13:00:41;;;;;;;0.10;0.10;;;;;;;32.34;48.84;97414.09;5020342;28;20075;-85
2023/10/08 13:03:31;;;;;;;0.08;0.08;;;;;;;31.57;49.78;97408.56;5021393;28;20047;-85
2023/10/08 13:06:22;;;;;;;0.10;0.10;;;;;;;30.10;58.76;97420.72;5018755;28;20034;-84
2023/10/08 13:09:12;;;;;;;0.00;0.00;;;;;;;32.19;46.94;97425.25;5020785;28;20494;-85
2023/10/08 13:12:01;;;;;;;0.10;0.10;;;;;;;31.17;50.30;97419.91;5021059;28;20041;-84
2023/10/08 13:14:47;;;;;;;0.03;0.03;;;;;;;30.20;51.53;97420.25;5018566;28;20041;-85
2023/10/08 13:17:32;;;;;;;0.10;0.10;;;;;;;30.89;52.27;97420.00;5021047;28;20056;-84
2023/10/08 13:20:19;;;;;;;0.00;0.00;;;;;;;28.80;59.30;97421.88;5018714;28;20051;-85
2023/10/08 13:23:04;;;;;;;0.00;0.00;;;;;;;26.77;83.57;97414.34;5017897;28;20871;-84
2023/10/08 13:26:03;;;;;;;0.00;0.00;;;;;;;26.44;84.26;97416.94;5022021;28;20111;-84
2023/10/08 13:28:50;;;;;;;0.00;0.00;;;;;;;25.89;87.40;97417.66;5018961;28;20085;-84
2023/10/08 13:31:36;;;;;;;0.00;0.00;;;;;;;25.19;91.05;97428.59;5017370;28;20045;-85
2023/10/08 13:34:22;;;;;;;0.00;0.00;;;;;;;24.83;93.12;97433.47;4991990;28;20040;-85
2023/10/08 13:37:07;;;;;;;0.00;0.00;;;;;;;24.56;93.78;97439.94;5031373;28;20049;-85
2023/10/08 13:39:53;;;;;;;0.00;0.00;;;;;;;24.52;94.67;97426.09;5020185;28;20098;-85
2023/10/08 13:42:39;;;;;;;0.10;0.10;;;;;;;23.37;100.00;97410.34;5020650;28;20041;-85
2023/10/08 13:45:29;;;;;;;0.10;0.10;;;;;;;23.34;100.00;97397.28;5020361;28;20156;-85